首页
METAR-TAF:

METAR-TAF

机场 :

奥古斯塔, 喬治亞, 美国

纬度: 33-21-52N, 经度: 081-57-48W, 海拔: 44米

当前天气观测

该预报发布于1小时和5分钟前的07:53 UTC
静风
温度 7°C
湿度 93%
气压 1015 hPa
能見度: 16.1公里
天空无云

METAR: KAGS 030753Z AUTO 00000KT 10SM CLR 07/06 A2998 RMK AO2 SLP151 T00670056

时间: 04:58 (08:58 UTC)

预报

该预报发布于29分钟前的08:29 UTC
预报有效从03日的 08点(UTC)到 04日的 06点(UTC)
风速3节,风向多变
能見度: 10公里
天空无云
从 03日的 1500点(UTC)
风速10节,风向西北
能見度: 10公里
散云层高于25000英尺
从 04日的 0000点(UTC)
风速3节,风向多变
能見度: 10公里
少量云层高于25000英尺

TAF: KAGS 030829Z 0308/0406 VRB03KT P6SM SKC FM031500 31010KT P6SM SCT250 FM040000 VRB03KT P6SM FEW250

超过4000个机场的气象观测和天气预报(METAR&TAF报告)。

可查询的气象台以黄色和红色小点在地图上表示。

将鼠标移到小点上方,可查看气象台名称。

然后点击查看天气观测和预报。

如需切换地图:点击带黑十字的绿色按钮放大地图;点击带横线的绿色按钮缩小地图;或者点击绿色箭头查看邻近地区的地图。


METAR-TAF: